CheckWX is a tool to help pilots better visualize weather data.  It is not intended as a substitute for an official pre-flight weather briefing.

13:05:35 UTC

KFLL TAF
Fort Lauderdale / Hollywood International Airport
Fort Lauderdale, Florida, USA
KFLL 171121Z 1712/1818 31010KT P6SM BKN010 FM171500 32010KT P6SM FEW035 SCT050 FM180000 VRB05KT P6SM FEW050 FM181500 28008KT P6SM SCT030 SCT050

Nov-17@
12:00 UTC

Nov-17 @ 12:00 UTC

Nov-17@
15:00 UTC

Nov-17 @ 15:00 UTC

KFLL 171121Z 1712/1818 31010KT P6SM BKN010
Wind
  • 310° at 10 KTS
Cloud Levels
  • Broken at 1,000' AGL

Nov-17@
15:00 UTC

Nov-17 @ 15:00 UTC

Nov-18@
00:00 UTC

Nov-18 @ 00:00 UTC

FM171500 32010KT P6SM FEW035 SCT050

From

From Standard forecast or significant change

Wind
  • 320° at 10 KTS
Cloud Levels
  • Few at 3,500' AGL
  • Scattered at 5,000' AGL

Nov-18@
00:00 UTC

Nov-18 @ 00:00 UTC

Nov-18@
15:00 UTC

Nov-18 @ 15:00 UTC

FM180000 VRB05KT P6SM FEW050

From

From Standard forecast or significant change

Wind
  • Variable at 5 KTS
Cloud Levels
  • Few at 5,000' AGL

Nov-18@
15:00 UTC

Nov-18 @ 15:00 UTC

Nov-18@
18:00 UTC

Nov-18 @ 18:00 UTC

FM181500 28008KT P6SM SCT030 SCT050

From

From Standard forecast or significant change

Wind
  • 280° at 8 KTS
Cloud Levels
  • Scattered at 3,000' AGL
  • Scattered at 5,000' AGL